createdAt,value
2023-03-26T00:01:59.009Z,4.80
2023-03-26T00:04:21.070Z,5.57
2023-03-26T00:06:41.295Z,4.85
2023-03-26T00:09:01.428Z,4.03
2023-03-26T00:11:22.399Z,5.20
2023-03-26T00:13:43.305Z,5.22
2023-03-26T00:16:03.926Z,5.28
2023-03-26T00:18:30.863Z,4.90
2023-03-26T00:20:51.913Z,5.63
2023-03-26T00:23:12.696Z,5.47
2023-03-26T00:25:33.587Z,4.65
2023-03-26T00:27:54.133Z,4.57
2023-03-26T00:30:14.748Z,4.95
2023-03-26T00:32:35.041Z,4.78
2023-03-26T00:34:55.475Z,5.53
2023-03-26T00:37:15.932Z,5.25
2023-03-26T00:39:36.737Z,4.30
2023-03-26T00:41:57.034Z,4.05
2023-03-26T00:44:17.318Z,5.07
2023-03-26T00:46:37.787Z,4.28
2023-03-26T00:48:59.161Z,5.38
2023-03-26T00:51:19.970Z,5.10
2023-03-26T00:53:40.600Z,4.85
2023-03-26T00:56:01.191Z,5.15
2023-03-26T00:58:21.559Z,6.15
2023-03-26T01:00:56.547Z,5.00
2023-03-26T01:03:26.919Z,3.88
2023-03-26T01:05:52.210Z,2.95
2023-03-26T01:08:15.494Z,3.53
2023-03-26T01:10:38.010Z,3.88
2023-03-26T01:12:57.949Z,5.50
2023-03-26T01:15:18.299Z,5.35
2023-03-26T01:17:38.640Z,4.72
2023-03-26T01:20:15.488Z,3.90
2023-03-26T01:22:37.097Z,3.85
2023-03-26T01:24:57.596Z,6.47
2023-03-26T01:27:23.656Z,4.10
2023-03-26T01:29:48.191Z,5.53
2023-03-26T01:32:18.913Z,3.47
2023-03-26T01:34:48.979Z,4.97
2023-03-26T01:37:29.821Z,2.60
2023-03-26T01:39:52.499Z,3.95
2023-03-26T01:42:15.580Z,3.67
2023-03-26T01:46:56.023Z,3.30
2023-03-26T01:49:18.142Z,3.40
2023-03-26T01:51:38.019Z,4.03
2023-03-26T01:53:59.784Z,4.18
2023-03-26T01:56:35.465Z,4.57
2023-03-26T01:59:04.135Z,4.18
2023-03-26T02:01:30.584Z,3.78
2023-03-26T02:03:52.912Z,4.25
2023-03-26T02:06:16.874Z,4.50
2023-03-26T02:08:40.541Z,3.50
2023-03-26T02:11:03.762Z,4.65
2023-03-26T02:13:24.102Z,6.90
2023-03-26T02:16:05.002Z,5.18
2023-03-26T02:18:35.938Z,4.18
2023-03-26T02:20:55.964Z,4.53
2023-03-26T02:23:16.140Z,4.15
2023-03-26T02:25:39.146Z,3.95
2023-03-26T02:27:59.747Z,4.25
2023-03-26T02:30:24.942Z,4.30
2023-03-26T02:32:45.178Z,4.38
2023-03-26T02:35:06.002Z,3.05
2023-03-26T02:37:26.103Z,4.47
2023-03-26T02:39:46.247Z,4.93
2023-03-26T02:42:06.353Z,4.32
2023-03-26T02:44:26.678Z,4.18
2023-03-26T02:46:46.689Z,5.57
2023-03-26T02:49:07.579Z,4.55
2023-03-26T02:51:28.175Z,3.92
2023-03-26T02:53:48.973Z,4.18
2023-03-26T02:56:09.184Z,3.95
2023-03-26T02:58:29.582Z,4.20
2023-03-26T03:00:50.118Z,4.88
2023-03-26T03:03:10.579Z,4.28
2023-03-26T03:05:31.591Z,4.25
2023-03-26T03:07:52.302Z,4.55
2023-03-26T03:10:13.193Z,5.13
2023-03-26T03:12:33.109Z,4.00
2023-03-26T03:14:53.410Z,5.00
2023-03-26T03:17:13.399Z,5.07
2023-03-26T03:19:33.631Z,6.25
2023-03-26T03:21:53.818Z,4.80
2023-03-26T03:24:17.792Z,6.03
2023-03-26T03:26:38.056Z,4.82
2023-03-26T03:28:58.523Z,5.18
2023-03-26T03:31:18.989Z,3.92
2023-03-26T03:33:40.770Z,5.15
2023-03-26T03:36:00.769Z,6.07
2023-03-26T03:38:20.942Z,5.63
2023-03-26T03:40:41.199Z,5.82
2023-03-26T03:43:01.257Z,5.13
2023-03-26T03:45:21.358Z,4.65
2023-03-26T03:47:41.800Z,4.55
2023-03-26T03:50:02.217Z,5.18
2023-03-26T03:52:22.549Z,5.25
2023-03-26T03:54:42.392Z,4.10
2023-03-26T03:57:02.830Z,4.50
2023-03-26T03:59:23.322Z,4.38
2023-03-26T04:01:46.043Z,3.35
2023-03-26T04:04:06.414Z,5.30
2023-03-26T04:06:29.499Z,4.07
2023-03-26T04:08:49.665Z,4.18
2023-03-26T04:11:10.096Z,4.50
2023-03-26T04:13:30.594Z,4.22
2023-03-26T04:15:50.695Z,4.57
2023-03-26T04:18:11.125Z,4.25
2023-03-26T04:20:31.398Z,3.80
2023-03-26T04:22:52.194Z,4.38
2023-03-26T04:25:12.909Z,3.05
2023-03-26T04:27:36.035Z,3.75
2023-03-26T04:32:29.332Z,5.10
2023-03-26T04:34:49.275Z,3.70
2023-03-26T04:37:11.375Z,4.43
2023-03-26T04:39:33.452Z,4.27
2023-03-26T04:41:53.446Z,4.47
2023-03-26T04:44:16.450Z,4.32
2023-03-26T04:46:36.694Z,4.38
2023-03-26T04:48:56.822Z,3.88
2023-03-26T04:51:17.964Z,4.32
2023-03-26T04:53:38.596Z,4.32
2023-03-26T04:56:06.535Z,4.35
2023-03-26T04:58:31.941Z,5.32
2023-03-26T05:00:52.213Z,4.70
2023-03-26T05:03:12.373Z,4.57
2023-03-26T05:05:32.490Z,4.78
2023-03-26T05:07:52.709Z,4.78
2023-03-26T05:10:14.076Z,4.57
2023-03-26T05:12:34.681Z,5.03
2023-03-26T05:14:55.255Z,6.78
2023-03-26T05:17:18.168Z,4.22
2023-03-26T05:19:39.061Z,4.93
2023-03-26T05:21:59.246Z,5.07
2023-03-26T05:24:19.685Z,4.35
2023-03-26T05:26:39.890Z,6.65
2023-03-26T05:29:02.150Z,4.70
2023-03-26T05:31:22.516Z,6.05
2023-03-26T05:33:42.680Z,5.20
2023-03-26T05:36:08.554Z,4.93
2023-03-26T05:38:29.405Z,6.00
2023-03-26T05:40:49.409Z,4.63
2023-03-26T05:43:10.078Z,5.25
2023-03-26T05:45:30.237Z,4.63
2023-03-26T05:47:53.456Z,5.13
2023-03-26T05:50:13.658Z,5.70
2023-03-26T05:52:33.824Z,4.45
2023-03-26T05:54:54.096Z,6.22
2023-03-26T05:57:14.407Z,6.80
2023-03-26T05:59:34.641Z,5.88
2023-03-26T06:01:54.428Z,6.07
2023-03-26T06:04:17.606Z,6.72
2023-03-26T06:06:38.581Z,7.53
2023-03-26T06:09:02.181Z,7.35
2023-03-26T06:11:23.155Z,8.73
2023-03-26T06:13:43.482Z,7.93
2023-03-26T06:16:03.878Z,8.40
2023-03-26T06:18:25.005Z,7.95
2023-03-26T06:20:45.076Z,7.53
2023-03-26T06:23:05.469Z,6.85
2023-03-26T06:25:25.625Z,6.00
2023-03-26T06:27:45.860Z,7.53
2023-03-26T06:30:06.315Z,6.28
2023-03-26T06:32:27.019Z,9.45
2023-03-26T06:34:47.323Z,7.90
2023-03-26T06:37:07.174Z,6.93
2023-03-26T06:39:27.432Z,6.80
2023-03-26T06:41:47.626Z,5.43
2023-03-26T06:44:07.963Z,7.55
2023-03-26T06:46:27.949Z,6.07
2023-03-26T06:48:48.030Z,6.93
2023-03-26T06:51:08.730Z,5.85
2023-03-26T06:53:28.534Z,6.53
2023-03-26T06:55:48.683Z,5.82
2023-03-26T06:58:10.972Z,6.75
2023-03-26T07:00:31.299Z,5.40
2023-03-26T07:02:51.598Z,5.43
2023-03-26T07:05:11.656Z,5.57
2023-03-26T07:07:31.701Z,6.15
2023-03-26T07:09:51.761Z,6.35
2023-03-26T07:12:11.898Z,4.32
2023-03-26T07:14:31.991Z,4.97
2023-03-26T07:16:52.068Z,4.88
2023-03-26T07:19:12.101Z,4.75
2023-03-26T07:21:32.343Z,6.15
2023-03-26T07:23:52.609Z,6.10
2023-03-26T07:26:27.976Z,4.80
2023-03-26T07:29:04.476Z,6.65
2023-03-26T07:31:26.497Z,5.20
2023-03-26T07:33:56.700Z,5.45
2023-03-26T07:36:21.223Z,6.22
2023-03-26T07:38:44.526Z,4.25
2023-03-26T07:43:53.929Z,4.32
2023-03-26T07:46:14.651Z,5.47
2023-03-26T07:48:47.135Z,5.30
2023-03-26T07:51:07.673Z,4.90
2023-03-26T07:53:27.704Z,4.15
2023-03-26T07:55:51.932Z,4.65
2023-03-26T07:58:12.163Z,4.82
2023-03-26T08:00:40.598Z,5.82
2023-03-26T08:03:07.402Z,4.07
2023-03-26T08:05:30.413Z,4.90
2023-03-26T08:08:26.517Z,4.63
2023-03-26T08:10:49.778Z,4.78
2023-03-26T08:13:12.324Z,4.95
2023-03-26T08:15:37.041Z,5.97
2023-03-26T08:17:57.347Z,5.75
2023-03-26T08:20:17.888Z,4.70
2023-03-26T08:22:41.084Z,4.50
2023-03-26T08:25:11.143Z,4.65
2023-03-26T08:27:42.599Z,3.70
2023-03-26T08:30:06.757Z,4.15
2023-03-26T08:32:27.102Z,3.30
2023-03-26T08:34:47.642Z,3.25
2023-03-26T08:37:09.165Z,4.07
2023-03-26T08:39:29.752Z,3.55
2023-03-26T08:42:05.355Z,3.25
2023-03-26T08:44:46.993Z,2.35
2023-03-26T08:47:16.937Z,3.10
2023-03-26T08:49:43.265Z,3.80
2023-03-26T08:52:06.596Z,3.15
2023-03-26T08:54:26.739Z,3.08
2023-03-26T08:56:56.325Z,2.60
2023-03-26T08:59:22.510Z,2.72
2023-03-26T09:02:01.822Z,3.80
2023-03-26T09:04:25.421Z,2.55
2023-03-26T09:09:19.305Z,3.13
2023-03-26T09:11:45.363Z,2.78
2023-03-26T09:14:24.141Z,2.35
2023-03-26T09:17:03.036Z,3.60
2023-03-26T09:19:35.896Z,3.70
2023-03-26T09:24:28.114Z,3.25
2023-03-26T09:27:00.401Z,4.38
2023-03-26T09:29:26.671Z,5.23
2023-03-26T09:31:46.740Z,3.03
2023-03-26T09:34:30.504Z,4.93
2023-03-26T09:36:56.471Z,3.40
2023-03-26T09:39:23.202Z,3.95
2023-03-26T09:41:50.157Z,3.40
2023-03-26T09:44:29.292Z,2.58
2023-03-26T09:46:55.003Z,3.38
2023-03-26T09:49:25.857Z,2.60
2023-03-26T09:52:06.418Z,3.80
2023-03-26T09:54:29.061Z,4.13
2023-03-26T09:57:03.015Z,4.05
2023-03-26T09:59:42.102Z,4.45
2023-03-26T10:02:03.624Z,3.47
2023-03-26T10:04:26.753Z,4.82
2023-03-26T10:06:54.284Z,2.83
2023-03-26T10:09:23.024Z,4.03
2023-03-26T10:11:43.073Z,3.55
2023-03-26T10:14:03.260Z,3.38
2023-03-26T10:16:30.598Z,4.15
2023-03-26T10:18:53.728Z,3.63
2023-03-26T10:21:13.832Z,2.88
2023-03-26T10:23:36.916Z,3.25
2023-03-26T10:26:20.040Z,3.58
2023-03-26T10:29:06.707Z,3.60
2023-03-26T10:31:35.624Z,3.97
2023-03-26T10:34:05.788Z,3.45
2023-03-26T10:36:26.213Z,3.42
2023-03-26T10:39:04.870Z,4.57
2023-03-26T10:41:51.610Z,3.42
2023-03-26T10:44:25.165Z,3.60
2023-03-26T10:46:51.095Z,3.15
2023-03-26T10:49:11.308Z,2.65
2023-03-26T10:51:54.912Z,4.50
2023-03-26T10:54:34.283Z,2.83
2023-03-26T10:56:55.827Z,2.97
2023-03-26T10:59:17.135Z,3.20
2023-03-26T11:01:56.084Z,3.42
2023-03-26T11:04:24.730Z,4.15
2023-03-26T11:06:45.290Z,4.10
2023-03-26T11:09:24.339Z,2.78
2023-03-26T11:11:44.890Z,2.45
2023-03-26T11:14:10.924Z,2.28
2023-03-26T11:16:37.104Z,1.70
2023-03-26T11:18:57.329Z,2.13
2023-03-26T11:21:19.554Z,2.65
2023-03-26T11:23:43.561Z,1.50
2023-03-26T11:26:17.411Z,1.73
2023-03-26T11:28:37.582Z,1.80
2023-03-26T11:31:20.090Z,1.42
2023-03-26T11:33:45.953Z,1.15
2023-03-26T11:36:27.041Z,1.65
2023-03-26T11:38:49.267Z,1.63
2023-03-26T11:41:22.496Z,1.67
2023-03-26T11:43:44.572Z,1.80
2023-03-26T11:46:07.633Z,1.38
2023-03-26T11:48:32.256Z,2.10
2023-03-26T11:50:55.410Z,1.30
2023-03-26T11:53:17.209Z,1.40
2023-03-26T11:55:40.348Z,1.40
2023-03-26T11:58:00.646Z,1.30
2023-03-26T12:00:23.297Z,1.10
2023-03-26T12:02:44.781Z,1.50
2023-03-26T12:05:21.938Z,1.40
2023-03-26T12:07:58.663Z,1.58
2023-03-26T12:10:38.530Z,1.50
2023-03-26T12:13:02.909Z,1.45
2023-03-26T12:15:24.726Z,1.20
2023-03-26T12:17:46.326Z,1.15
2023-03-26T12:20:22.912Z,1.30
2023-03-26T12:22:47.739Z,1.20
2023-03-26T12:25:22.362Z,1.55
2023-03-26T12:28:12.821Z,1.33
2023-03-26T12:30:37.306Z,1.20
2023-03-26T12:33:05.214Z,1.77
2023-03-26T12:35:26.997Z,1.67
2023-03-26T12:37:47.737Z,1.20
2023-03-26T12:40:26.799Z,1.20
2023-03-26T12:44:50.878Z,1.30
2023-03-26T12:45:42.406Z,1.10
2023-03-26T12:48:04.177Z,1.65
2023-03-26T12:50:34.028Z,1.77
2023-03-26T12:53:14.285Z,1.20
2023-03-26T12:55:36.014Z,1.48
2023-03-26T12:58:13.489Z,1.50
2023-03-26T13:00:44.977Z,1.23
2023-03-26T13:03:24.344Z,1.40
2023-03-26T13:05:56.716Z,1.80
2023-03-26T13:08:34.757Z,1.90
2023-03-26T13:11:13.191Z,1.45
2023-03-26T13:13:52.470Z,1.10
2023-03-26T13:16:28.352Z,1.45
2023-03-26T13:19:07.178Z,1.20
2023-03-26T13:21:30.027Z,1.70
2023-03-26T13:24:13.508Z,2.38
2023-03-26T13:26:59.606Z,1.27
2023-03-26T13:29:33.871Z,1.85
2023-03-26T13:32:17.212Z,1.55
2023-03-26T13:34:49.651Z,1.60
2023-03-26T13:37:12.040Z,1.53
2023-03-26T13:39:32.607Z,1.17
2023-03-26T13:42:02.874Z,1.20
2023-03-26T13:44:32.545Z,1.25
2023-03-26T13:46:55.375Z,1.17
2023-03-26T13:49:16.744Z,1.10
2023-03-26T13:51:43.190Z,1.05
2023-03-26T13:54:22.349Z,1.20
2023-03-26T13:56:46.872Z,1.25
2023-03-26T13:59:12.334Z,1.40
2023-03-26T14:01:34.515Z,1.88
2023-03-26T14:03:58.248Z,1.40
2023-03-26T14:06:18.688Z,1.30
2023-03-26T14:08:42.416Z,1.20
2023-03-26T14:11:10.265Z,1.20
2023-03-26T14:14:06.033Z,1.73
2023-03-26T14:16:28.129Z,1.20
2023-03-26T14:19:07.112Z,2.13
2023-03-26T14:21:44.591Z,1.50
2023-03-26T14:24:16.873Z,1.27
2023-03-26T14:26:36.899Z,1.23
2023-03-26T14:29:12.258Z,1.10
2023-03-26T14:31:35.601Z,1.20
2023-03-26T14:34:19.033Z,1.20
2023-03-26T14:36:58.543Z,1.48
2023-03-26T14:39:37.785Z,1.40
2023-03-26T14:41:58.164Z,1.33
2023-03-26T14:44:27.550Z,1.30
2023-03-26T14:46:53.990Z,1.80
2023-03-26T14:49:23.161Z,1.20
2023-03-26T14:51:43.388Z,1.40
2023-03-26T14:54:11.983Z,1.42
2023-03-26T14:56:44.364Z,1.30
2023-03-26T14:59:23.084Z,1.80
2023-03-26T15:01:43.159Z,1.40
2023-03-26T15:04:18.367Z,1.20
2023-03-26T15:06:47.625Z,1.30
2023-03-26T15:09:26.260Z,1.83
2023-03-26T15:11:46.694Z,1.20
2023-03-26T15:14:25.817Z,2.08
2023-03-26T15:16:55.663Z,1.42
2023-03-26T15:19:30.152Z,1.50
2023-03-26T15:21:50.468Z,1.42
2023-03-26T15:24:33.011Z,1.48
2023-03-26T15:27:12.082Z,1.63
2023-03-26T15:29:38.382Z,2.05
2023-03-26T15:32:01.378Z,1.92
2023-03-26T15:34:41.664Z,1.65
2023-03-26T15:37:17.379Z,1.60
2023-03-26T15:39:59.937Z,2.00
2023-03-26T15:42:37.817Z,1.77
2023-03-26T15:45:13.358Z,1.42
2023-03-26T15:47:43.091Z,1.20
2023-03-26T15:50:16.290Z,1.63
2023-03-26T15:55:03.331Z,1.98
2023-03-26T15:57:50.375Z,1.65
2023-03-26T16:00:23.902Z,1.40
2023-03-26T16:02:53.521Z,2.13
2023-03-26T16:05:17.015Z,2.28
2023-03-26T16:07:49.478Z,1.70
2023-03-26T16:10:37.473Z,1.50
2023-03-26T16:13:16.847Z,2.05
2023-03-26T16:15:37.372Z,2.10
2023-03-26T16:18:11.277Z,2.78
2023-03-26T16:20:35.856Z,1.58
2023-03-26T16:23:00.049Z,2.10
2023-03-26T16:25:32.553Z,1.73
2023-03-26T16:28:08.424Z,1.60
2023-03-26T16:30:32.270Z,1.58
2023-03-26T16:32:55.358Z,1.70
2023-03-26T16:35:15.958Z,1.40
2023-03-26T16:37:39.130Z,2.00
2023-03-26T16:40:22.945Z,2.20
2023-03-26T16:42:46.093Z,1.60
2023-03-26T16:47:31.371Z,1.65
2023-03-26T16:50:09.590Z,2.50
2023-03-26T16:52:49.870Z,1.35
2023-03-26T16:55:20.043Z,2.65
2023-03-26T16:58:02.412Z,1.90
2023-03-26T17:00:27.616Z,3.90
2023-03-26T17:02:48.455Z,1.77
2023-03-26T17:05:21.223Z,1.90
2023-03-26T17:08:03.041Z,2.67
2023-03-26T17:10:34.034Z,2.72
2023-03-26T17:13:09.202Z,2.00
2023-03-26T17:15:53.188Z,1.90
2023-03-26T17:18:16.724Z,3.08
2023-03-26T17:20:43.824Z,2.80
2023-03-26T17:23:13.186Z,3.72
2023-03-26T17:25:36.665Z,2.42
2023-03-26T17:28:15.716Z,1.70
2023-03-26T17:31:01.396Z,2.47
2023-03-26T17:33:31.185Z,2.20
2023-03-26T17:35:51.908Z,1.67
2023-03-26T17:38:17.664Z,2.30
2023-03-26T17:40:44.007Z,2.30
2023-03-26T17:43:08.842Z,3.10
2023-03-26T17:45:32.257Z,2.35
2023-03-26T17:48:01.606Z,3.13
2023-03-26T17:50:37.450Z,2.83
2023-03-26T17:52:59.363Z,1.88
2023-03-26T17:55:20.763Z,2.88
2023-03-26T17:57:43.001Z,3.88
2023-03-26T18:00:06.928Z,2.53
2023-03-26T18:02:35.688Z,3.17
2023-03-26T18:04:56.083Z,3.25
2023-03-26T18:07:16.453Z,3.47
2023-03-26T18:09:47.546Z,1.98
2023-03-26T18:12:26.788Z,4.72
2023-03-26T18:14:46.706Z,2.70
2023-03-26T18:17:07.032Z,3.97
2023-03-26T18:19:27.856Z,4.22
2023-03-26T18:21:52.689Z,2.40
2023-03-26T18:24:27.092Z,3.72
2023-03-26T18:26:51.768Z,3.20
2023-03-26T18:29:21.640Z,2.40
2023-03-26T18:31:42.897Z,5.10
2023-03-26T18:34:08.676Z,3.83
2023-03-26T18:36:30.858Z,2.40
2023-03-26T18:38:51.125Z,2.95
2023-03-26T18:41:39.543Z,3.13
2023-03-26T18:44:04.329Z,2.45
2023-03-26T18:46:25.069Z,3.70
2023-03-26T18:48:46.387Z,5.47
2023-03-26T18:51:07.274Z,4.45
2023-03-26T18:53:29.486Z,4.80
2023-03-26T18:55:50.882Z,3.75
2023-03-26T18:58:23.006Z,3.67
2023-03-26T19:00:43.539Z,3.45
2023-03-26T19:03:05.228Z,3.53
2023-03-26T19:05:27.895Z,2.88
2023-03-26T19:07:48.359Z,4.03
2023-03-26T19:10:15.657Z,3.72
2023-03-26T19:12:36.666Z,4.20
2023-03-26T19:14:58.195Z,4.18
2023-03-26T19:17:18.422Z,3.40
2023-03-26T19:19:38.802Z,2.65
2023-03-26T19:22:00.381Z,3.03
2023-03-26T19:24:21.876Z,3.40
2023-03-26T19:26:41.984Z,3.05
2023-03-26T19:29:02.534Z,3.53
2023-03-26T19:31:41.702Z,3.20
2023-03-26T19:34:04.298Z,5.25
2023-03-26T19:36:26.028Z,4.38
2023-03-26T19:39:04.274Z,3.87
2023-03-26T19:41:35.156Z,3.70
2023-03-26T19:43:57.342Z,3.63
2023-03-26T19:46:18.067Z,4.75
2023-03-26T19:48:45.507Z,3.72
2023-03-26T19:51:19.131Z,5.53
2023-03-26T19:53:43.255Z,4.22
2023-03-26T19:56:06.329Z,3.42
2023-03-26T19:58:27.029Z,3.33
2023-03-26T20:00:47.644Z,3.90
2023-03-26T20:03:08.423Z,2.92
2023-03-26T20:05:33.113Z,2.95
2023-03-26T20:07:55.432Z,3.60
2023-03-26T20:10:15.951Z,4.32
2023-03-26T20:12:36.385Z,2.97
2023-03-26T20:14:56.976Z,3.95
2023-03-26T20:17:17.773Z,4.22
2023-03-26T20:19:38.455Z,4.15
2023-03-26T20:21:58.914Z,2.65
2023-03-26T20:24:20.819Z,2.97
2023-03-26T20:26:41.185Z,2.63
2023-03-26T20:29:01.368Z,3.10
2023-03-26T20:31:24.102Z,3.25
2023-03-26T20:33:45.300Z,3.17
2023-03-26T20:36:05.766Z,2.47
2023-03-26T20:38:36.658Z,2.33
2023-03-26T20:43:21.005Z,2.33
2023-03-26T20:45:42.103Z,2.72
2023-03-26T20:48:02.534Z,3.63
2023-03-26T20:50:23.700Z,2.17
2023-03-26T20:52:44.177Z,2.10
2023-03-26T20:55:05.640Z,2.90
2023-03-26T20:57:25.835Z,2.97
2023-03-26T20:59:46.259Z,3.15
2023-03-26T21:02:06.318Z,1.98
2023-03-26T21:04:26.750Z,2.00
2023-03-26T21:06:47.032Z,2.97
2023-03-26T21:09:07.324Z,3.70
2023-03-26T21:11:30.854Z,3.58
2023-03-26T21:16:12.561Z,2.38
2023-03-26T21:18:32.939Z,2.53
2023-03-26T21:21:21.090Z,2.90
2023-03-26T21:23:45.870Z,2.60
2023-03-26T21:26:05.796Z,2.88
2023-03-26T21:28:39.348Z,2.70
2023-03-26T21:31:04.177Z,3.13
2023-03-26T21:33:24.628Z,2.38
2023-03-26T21:35:50.984Z,2.67
2023-03-26T21:38:11.274Z,2.30
2023-03-26T21:40:32.393Z,2.55
2023-03-26T21:42:54.085Z,2.05
2023-03-26T21:45:14.994Z,2.30
2023-03-26T21:47:35.100Z,2.50
2023-03-26T21:49:55.516Z,3.42
2023-03-26T21:52:15.769Z,2.65
2023-03-26T21:54:36.341Z,2.47
2023-03-26T21:57:02.570Z,7.15
2023-03-26T21:59:35.843Z,2.90
2023-03-26T22:01:56.195Z,3.03
2023-03-26T22:04:21.619Z,3.10
2023-03-26T22:06:55.089Z,3.40
2023-03-26T22:09:18.394Z,3.40
2023-03-26T22:11:43.608Z,4.32
2023-03-26T22:14:04.390Z,3.08
2023-03-26T22:16:24.430Z,3.15
2023-03-26T22:18:44.400Z,3.15
2023-03-26T22:21:05.243Z,3.17
2023-03-26T22:23:25.588Z,2.85
2023-03-26T22:25:46.440Z,2.25
2023-03-26T22:28:06.513Z,2.35
2023-03-26T22:30:26.722Z,1.98
2023-03-26T22:32:47.034Z,2.83
2023-03-26T22:35:07.564Z,2.35
2023-03-26T22:37:27.997Z,3.30
2023-03-26T22:39:47.997Z,3.33
2023-03-26T22:42:08.182Z,3.33
2023-03-26T22:44:28.234Z,2.83
2023-03-26T22:46:50.411Z,2.58
2023-03-26T22:49:10.855Z,2.40
2023-03-26T22:51:31.113Z,2.90
2023-03-26T22:53:51.524Z,2.42
2023-03-26T22:56:13.601Z,3.50
2023-03-26T22:58:34.672Z,2.65
2023-03-26T23:01:11.756Z,3.15
2023-03-26T23:03:35.228Z,3.13
2023-03-26T23:05:56.572Z,2.95
2023-03-26T23:08:16.969Z,2.78
2023-03-26T23:10:37.556Z,2.60
2023-03-26T23:12:57.878Z,3.05
2023-03-26T23:15:19.965Z,3.03
2023-03-26T23:17:40.542Z,3.13
2023-03-26T23:20:00.399Z,2.85
2023-03-26T23:22:20.847Z,2.88
2023-03-26T23:24:41.339Z,3.45
2023-03-26T23:27:01.347Z,2.55
2023-03-26T23:29:21.596Z,3.53
2023-03-26T23:31:41.909Z,2.65
2023-03-26T23:34:01.950Z,2.22
2023-03-26T23:36:23.023Z,3.45
2023-03-26T23:38:46.012Z,3.58
2023-03-26T23:41:06.710Z,2.65
2023-03-26T23:43:26.993Z,3.65
2023-03-26T23:45:47.616Z,2.65
2023-03-26T23:48:07.877Z,3.67
2023-03-26T23:50:32.394Z,2.10
2023-03-26T23:52:52.886Z,3.33
2023-03-26T23:55:12.719Z,3.05
2023-03-26T23:57:33.108Z,3.38
2023-03-26T23:59:54.849Z,3.47
